createdAt,value
2019-03-30T00:00:09.066Z,7.00
2019-03-30T00:05:04.372Z,7.73
2019-03-30T00:09:58.447Z,7.40
2019-03-30T00:14:52.564Z,8.07
2019-03-30T00:19:47.159Z,8.47
2019-03-30T00:24:41.323Z,8.63
2019-03-30T00:29:35.312Z,8.70
2019-03-30T00:34:29.421Z,9.50
2019-03-30T00:39:23.501Z,9.10
2019-03-30T00:44:17.457Z,8.50
2019-03-30T00:49:11.541Z,8.40
2019-03-30T00:54:05.517Z,8.50
2019-03-30T00:58:59.630Z,8.73
2019-03-30T01:03:53.633Z,8.93
2019-03-30T01:08:47.890Z,8.70
2019-03-30T01:13:42.018Z,8.60
2019-03-30T01:18:36.348Z,8.23
2019-03-30T01:23:30.434Z,8.53
2019-03-30T01:28:24.995Z,8.30
2019-03-30T01:33:19.057Z,8.13
2019-03-30T01:38:13.029Z,8.10
2019-03-30T01:43:06.991Z,8.13
2019-03-30T01:48:00.959Z,8.67
2019-03-30T01:52:55.043Z,8.30
2019-03-30T01:57:49.233Z,7.47
2019-03-30T02:02:43.328Z,8.53
2019-03-30T02:07:37.508Z,8.17
2019-03-30T02:12:31.437Z,8.77
2019-03-30T02:17:25.404Z,8.53
2019-03-30T02:22:19.364Z,8.60
2019-03-30T02:27:13.439Z,9.10
2019-03-30T02:32:07.606Z,9.33
2019-03-30T02:37:01.583Z,8.97
2019-03-30T02:41:55.561Z,9.23
2019-03-30T02:46:49.526Z,9.00
2019-03-30T02:51:43.479Z,8.83
2019-03-30T02:56:37.474Z,8.77
2019-03-30T03:01:31.465Z,8.43
2019-03-30T03:06:25.537Z,8.63
2019-03-30T03:11:19.646Z,8.70
2019-03-30T03:16:13.643Z,8.50
2019-03-30T03:21:08.738Z,8.20
2019-03-30T03:26:03.165Z,8.17
2019-03-30T03:30:57.581Z,8.00
2019-03-30T03:35:51.545Z,8.30
2019-03-30T03:40:45.520Z,8.50
2019-03-30T03:45:39.689Z,8.10
2019-03-30T03:50:41.720Z,8.27
2019-03-30T03:55:35.777Z,7.57
2019-03-30T04:00:29.853Z,8.10
2019-03-30T04:05:25.742Z,8.30
2019-03-30T04:10:21.726Z,8.53
2019-03-30T04:15:23.095Z,8.50
2019-03-30T04:20:22.285Z,8.27
2019-03-30T04:25:16.240Z,8.83
2019-03-30T04:30:10.198Z,8.80
2019-03-30T04:35:04.567Z,8.73
2019-03-30T04:39:58.558Z,8.60
2019-03-30T04:44:52.790Z,8.80
2019-03-30T04:49:46.744Z,9.10
2019-03-30T04:54:40.752Z,9.30
2019-03-30T04:59:34.737Z,9.00
2019-03-30T05:04:28.761Z,9.50
2019-03-30T05:09:22.729Z,9.10
2019-03-30T05:14:17.145Z,9.27
2019-03-30T05:19:11.371Z,9.10
2019-03-30T05:24:05.393Z,9.27
2019-03-30T05:28:59.362Z,8.80
2019-03-30T05:33:53.358Z,9.27
2019-03-30T05:38:47.542Z,9.00
2019-03-30T05:43:41.544Z,9.23
2019-03-30T05:48:35.476Z,9.00
2019-03-30T05:53:29.506Z,9.20
2019-03-30T05:58:23.457Z,9.80
2019-03-30T06:03:17.689Z,9.90
2019-03-30T06:08:11.661Z,9.60
2019-03-30T06:13:05.661Z,9.57
2019-03-30T06:17:59.859Z,10.40
2019-03-30T06:22:53.833Z,10.20
2019-03-30T06:27:47.795Z,9.90
2019-03-30T06:32:43.551Z,10.03
2019-03-30T06:37:37.594Z,9.70
2019-03-30T06:42:31.695Z,9.50
2019-03-30T06:47:25.779Z,9.73
2019-03-30T06:52:19.921Z,9.47
2019-03-30T06:57:13.892Z,9.10
2019-03-30T07:02:08.539Z,10.00
2019-03-30T07:07:02.671Z,9.93
2019-03-30T07:11:58.338Z,10.17
2019-03-30T07:16:53.516Z,9.50
2019-03-30T07:21:47.605Z,9.50
2019-03-30T07:26:41.649Z,9.73
2019-03-30T07:31:35.633Z,9.90
2019-03-30T07:36:29.616Z,10.10
2019-03-30T07:41:23.632Z,11.57
2019-03-30T07:46:19.629Z,10.70
2019-03-30T07:51:13.601Z,9.90
2019-03-30T07:56:08.849Z,10.47
2019-03-30T08:01:02.994Z,10.37
2019-03-30T08:05:57.082Z,10.83
2019-03-30T08:10:51.059Z,11.10
2019-03-30T08:15:45.143Z,9.87
2019-03-30T08:20:39.234Z,10.90
2019-03-30T08:25:33.225Z,10.40
2019-03-30T08:30:27.297Z,10.20
2019-03-30T08:35:21.360Z,9.53
2019-03-30T08:40:15.322Z,9.95
2019-03-30T08:45:09.715Z,10.80
2019-03-30T08:50:06.296Z,10.08
2019-03-30T08:55:00.379Z,10.17
2019-03-30T08:59:54.476Z,10.50
2019-03-30T09:04:48.584Z,10.03
2019-03-30T09:09:42.680Z,10.23
2019-03-30T09:14:36.650Z,9.30
2019-03-30T09:19:30.732Z,10.05
2019-03-30T09:24:24.812Z,9.93
2019-03-30T09:29:20.051Z,9.48
2019-03-30T09:34:14.129Z,9.85
2019-03-30T09:39:08.432Z,9.58
2019-03-30T09:44:02.716Z,9.15
2019-03-30T09:48:56.710Z,9.70
2019-03-30T09:53:50.998Z,9.23
2019-03-30T09:58:45.425Z,9.63
2019-03-30T10:03:39.527Z,9.45
2019-03-30T10:08:33.522Z,8.90
2019-03-30T10:13:27.470Z,8.53
2019-03-30T10:18:21.448Z,8.10
2019-03-30T10:23:15.662Z,7.60
2019-03-30T10:28:09.672Z,8.10
2019-03-30T10:33:03.659Z,8.03
2019-03-30T10:37:57.651Z,7.22
2019-03-30T10:42:51.736Z,7.50
2019-03-30T10:47:45.721Z,6.67
2019-03-30T10:52:39.733Z,7.35
2019-03-30T10:57:33.698Z,7.65
2019-03-30T11:02:27.699Z,7.55
2019-03-30T11:07:21.765Z,7.40
2019-03-30T11:12:15.739Z,7.42
2019-03-30T11:17:09.752Z,6.72
2019-03-30T11:22:03.744Z,6.65
2019-03-30T11:26:57.746Z,6.97
2019-03-30T11:31:51.711Z,7.10
2019-03-30T11:36:45.695Z,6.55
2019-03-30T11:41:39.663Z,6.25
2019-03-30T11:46:33.758Z,6.15
2019-03-30T11:51:27.722Z,6.15
2019-03-30T11:56:21.684Z,6.22
2019-03-30T12:01:15.675Z,6.33
2019-03-30T12:06:09.901Z,6.30
2019-03-30T12:11:03.990Z,5.95
2019-03-30T12:15:58.303Z,7.15
2019-03-30T12:20:52.282Z,7.40
2019-03-30T12:25:46.393Z,6.78
2019-03-30T12:30:40.569Z,7.00
2019-03-30T12:35:34.718Z,6.78
2019-03-30T12:40:28.710Z,7.28
2019-03-30T12:45:22.830Z,6.50
2019-03-30T12:50:16.940Z,7.03
2019-03-30T12:55:11.114Z,5.97
2019-03-30T13:00:06.025Z,6.28
2019-03-30T13:05:00.060Z,7.20
2019-03-30T13:09:54.193Z,6.85
2019-03-30T13:14:48.317Z,7.95
2019-03-30T13:19:42.299Z,7.30
2019-03-30T13:24:36.393Z,7.47
2019-03-30T13:29:30.690Z,8.05
2019-03-30T13:34:24.658Z,6.95
2019-03-30T13:39:18.654Z,7.50
2019-03-30T13:44:12.750Z,8.30
2019-03-30T13:49:06.774Z,7.92
2019-03-30T13:54:01.229Z,7.58
2019-03-30T13:58:55.212Z,8.13
2019-03-30T14:03:49.210Z,8.73
2019-03-30T14:08:43.228Z,9.35
2019-03-30T14:13:37.239Z,8.85
2019-03-30T14:18:31.492Z,9.13
2019-03-30T14:23:25.664Z,8.60
2019-03-30T14:28:19.989Z,9.15
2019-03-30T14:33:20.244Z,9.08
2019-03-30T14:38:14.261Z,8.18
2019-03-30T14:43:08.346Z,8.20
2019-03-30T14:48:02.604Z,8.13
2019-03-30T14:52:56.681Z,8.58
2019-03-30T14:57:50.757Z,8.48
2019-03-30T15:02:44.871Z,7.50
2019-03-30T15:07:39.061Z,7.83
2019-03-30T15:12:33.095Z,7.78
2019-03-30T15:17:27.104Z,6.97
2019-03-30T15:22:21.107Z,7.62
2019-03-30T15:27:15.344Z,7.53
2019-03-30T15:32:09.428Z,8.10
2019-03-30T15:37:03.661Z,8.18
2019-03-30T15:41:57.954Z,8.85
2019-03-30T15:46:51.924Z,8.83
2019-03-30T15:51:45.959Z,8.73
2019-03-30T15:56:39.951Z,7.62
2019-03-30T16:01:33.959Z,7.62
2019-03-30T16:06:28.093Z,8.80
2019-03-30T16:11:22.325Z,8.23
2019-03-30T16:16:16.319Z,9.28
2019-03-30T16:21:10.594Z,8.40
2019-03-30T16:26:04.975Z,8.08
2019-03-30T16:30:59.186Z,8.75
2019-03-30T16:35:53.187Z,8.78
2019-03-30T16:40:47.258Z,8.33
2019-03-30T16:45:41.244Z,9.20
2019-03-30T16:50:35.259Z,8.60
2019-03-30T16:55:29.232Z,8.90
2019-03-30T17:00:23.450Z,7.78
2019-03-30T17:05:17.473Z,8.40
2019-03-30T17:10:11.793Z,9.25
2019-03-30T17:15:06.111Z,9.45
2019-03-30T17:20:00.168Z,9.23
2019-03-30T17:24:54.480Z,8.80
2019-03-30T17:29:48.809Z,10.45
2019-03-30T17:34:42.788Z,13.35
2019-03-30T17:39:36.906Z,13.40
2019-03-30T17:45:46.813Z,9.28
2019-03-30T17:50:41.037Z,8.75
2019-03-30T19:00:06.051Z,13.70
2019-03-30T19:05:00.393Z,15.10
2019-03-30T19:09:54.498Z,15.88
2019-03-30T19:16:15.560Z,15.32
2019-03-30T19:21:09.594Z,14.95
2019-03-30T19:26:03.647Z,14.15
2019-03-30T19:30:57.629Z,13.00
2019-03-30T19:35:51.698Z,13.72
2019-03-30T19:40:45.694Z,14.25
2019-03-30T19:45:39.679Z,16.17
2019-03-30T19:50:33.704Z,15.55
2019-03-30T19:55:28.095Z,15.58
2019-03-30T20:00:22.308Z,16.70
2019-03-30T20:05:16.564Z,16.07
2019-03-30T20:10:10.985Z,17.55
2019-03-30T20:15:44.052Z,17.85
2019-03-30T20:20:38.096Z,18.83
2019-03-30T20:25:32.099Z,18.37
2019-03-30T20:30:26.083Z,17.23
2019-03-30T20:35:20.190Z,17.10
2019-03-30T20:40:14.392Z,16.57
2019-03-30T20:45:53.519Z,16.83
2019-03-30T20:50:47.692Z,16.03
2019-03-30T20:55:41.664Z,16.20
2019-03-30T21:00:35.657Z,17.57
2019-03-30T21:05:29.648Z,17.17
2019-03-30T21:10:23.617Z,17.47
2019-03-30T21:15:17.827Z,17.30
2019-03-30T21:20:13.051Z,18.87
2019-03-30T21:25:07.340Z,18.57
2019-03-30T21:30:03.745Z,18.00
2019-03-30T21:34:57.777Z,17.57
2019-03-30T21:39:51.802Z,16.43
2019-03-30T21:44:45.942Z,18.40
2019-03-30T21:49:40.235Z,17.07
2019-03-30T21:54:34.302Z,18.50
2019-03-30T21:59:28.395Z,17.93
2019-03-30T22:04:23.647Z,16.73
2019-03-30T22:09:17.957Z,16.30
2019-03-30T22:14:13.582Z,15.93
2019-03-30T22:19:07.637Z,14.83
2019-03-30T22:24:01.801Z,15.07
2019-03-30T22:28:55.879Z,15.03
2019-03-30T22:33:49.976Z,14.50
2019-03-30T22:38:44.018Z,16.00
2019-03-30T22:43:37.991Z,15.67
2019-03-30T22:48:32.000Z,15.70
2019-03-30T22:53:25.977Z,17.13
2019-03-30T22:58:19.978Z,16.47
2019-03-30T23:03:14.141Z,16.97
2019-03-30T23:08:08.189Z,17.27
2019-03-30T23:13:02.279Z,17.07
2019-03-30T23:17:56.320Z,17.07
2019-03-30T23:22:50.304Z,17.93
2019-03-30T23:27:44.448Z,17.23
2019-03-30T23:32:38.392Z,18.00
2019-03-30T23:37:32.417Z,17.70
2019-03-30T23:42:26.423Z,18.17
2019-03-30T23:47:20.710Z,17.93
2019-03-30T23:52:14.711Z,17.53
2019-03-30T23:57:08.794Z,16.73
